Latest Weather Observations for Macquarie Island*

IDT60801

Issued at 2:31 pm EST Wednesday 8 July 2015 (issued every 30 minutes, with the page automatically refreshed every 10 minutes)

About weather observations | Map of weather stations | Latest weather observations for ANT | Other Formats
Station Details ID: 300004 Name: MACQUARIE ISLAND Lat: -54.50 Lon: 158.94 Height: 6.0 m
Data from the previous 72 hours. | See also: Recent months at Macquarie Island*
Date/Time
EST
Temp
°C
App
Temp
°C
Dew
Point
Rel
Hum
%
Delta-T
°C
Wind Press
QNH
hPa
Press
MSL
hPa
Rain
since 9 am
mm
Dir
 
Spd
km/h
Gust
km/h
Spd
kts
Gust
kts
08/12:30pm 2.9 -5.0 1.1 88 0.7 W 32 41 17 22 1022.3 - 0.0
08/12:00pm 2.9 -5.0 1.1 88 0.7 W 32 39 17 21 1022.5 1022.8 0.0
08/11:30am 2.7 -5.4 0.9 88 0.7 W 33 39 18 21 1022.6 - 0.0
08/11:00am 2.8 -5.3 1.0 88 0.7 W 33 41 18 22 1022.5 - 0.0
08/10:30am 2.6 -6.7 0.7 87 0.7 W 39 46 21 25 1022.5 - 0.0
08/10:00am 2.6 -5.9 0.7 87 0.7 W 35 43 19 23 1022.8 - 0.0
08/09:30am 2.6 -7.1 0.5 86 0.8 W 41 54 22 29 1022.6 - 0.0
08/09:00am 2.4 -7.4 0.1 85 0.8 W 41 54 22 29 1022.2 1022.5 2.4
08/08:30am 2.2 -8.0 -0.4 83 0.9 W 43 56 23 30 1021.8 - 2.4
08/08:00am 2.1 -8.7 -0.6 82 1.0 W 46 59 25 32 1021.7 - 2.4
08/07:35am 2.1 -9.1 -0.6 82 1.0 W 48 67 26 36 1021.5 - 2.4
08/07:30am 2.0 -8.8 -0.7 82 1.0 W 46 61 25 33 1021.4 - 2.4
08/07:09am 2.0 -7.9 -0.7 82 1.0 W 41 59 22 32 1021.5 - 2.4
08/07:00am 1.9 -7.6 -0.8 82 1.0 W 39 56 21 30 1021.6 - 2.4
08/06:30am 1.8 -8.7 -0.9 82 1.0 W 44 65 24 35 1021.5 - 2.4
08/06:00am 1.6 -6.6 -1.1 82 1.0 WSW 32 50 17 27 1021.7 1022.0 2.4
08/05:30am 1.7 -4.0 -0.7 84 0.9 W 19 39 10 21 1021.8 - 2.4
08/05:00am 1.4 -3.6 -1.0 84 0.9 WSW 15 35 8 19 1021.6 - 2.4
08/04:30am 1.3 -4.6 -1.1 84 0.8 WSW 20 44 11 24 1021.4 - 2.4
08/04:00am 1.4 -6.8 -1.0 84 0.9 W 32 50 17 27 1021.0 - 2.4
08/03:30am 1.5 -8.4 -0.9 84 0.9 W 41 59 22 32 1020.7 - 2.4
08/03:00am 1.4 -6.8 -1.0 84 0.8 W 32 50 17 27 1020.8 1021.1 2.4
08/02:36am 1.1 -6.4 -1.5 83 0.9 W 28 46 15 25 1021.0 - 2.4
08/02:30am 1.2 -5.9 -1.4 83 0.9 W 26 39 14 21 1021.0 - 2.4
08/02:02am 1.4 -6.8 -1.2 83 0.9 WSW 32 50 17 27 1020.7 - 2.4
08/02:00am 1.3 -7.1 -1.4 82 0.9 WSW 33 50 18 27 1020.6 - 2.4
08/01:30am 1.3 -7.1 -1.4 82 0.9 WSW 33 54 18 29 1020.3 - 2.4
08/01:00am 1.3 -7.0 -1.4 82 0.9 WSW 32 59 17 32 1020.2 - 2.4
08/12:30am 1.3 -7.5 -1.4 82 0.9 WSW 35 54 19 29 1020.1 - 2.4
08/12:05am 1.3 -6.9 -1.3 83 0.9 W 32 54 17 29 1019.8 - 2.4
08/12:00am 1.2 -7.1 -1.4 83 0.9 W 32 48 17 26 1019.9 1020.2 2.4
 
Date/Time
EST
Temp
°C
App
Temp
°C
Dew
Point
Rel
Hum
%
Delta-T
°C
Wind Press
QNH
hPa
Press
MSL
hPa
Rain
since 9 am
mm
Dir
 
Spd
km/h
Gust
km/h
Spd
kts
Gust
kts
07/11:36pm 1.1 -7.4 -1.6 82 0.9 WSW 33 52 18 28 1020.0 - 2.4
07/11:30pm 1.1 -8.5 -1.5 83 0.9 WSW 39 52 21 28 1019.8 - 2.4
07/11:01pm 1.1 -7.4 -1.5 83 0.9 WSW 33 54 18 29 1020.0 - 2.4
07/11:00pm 1.1 -7.4 -1.5 83 0.9 WSW 33 48 18 26 1020.0 - 2.4
07/10:30pm 1.0 -8.2 -1.7 82 0.9 WSW 37 57 20 31 1019.9 - 2.4
07/10:00pm 0.9 -7.6 -1.8 82 1.0 WSW 33 54 18 29 1019.9 - 2.4
07/09:30pm 1.0 -7.3 -1.6 83 0.9 WSW 32 50 17 27 1019.6 - 2.4
07/09:00pm 1.0 -9.0 -1.6 83 0.9 WSW 41 65 22 35 1019.3 1019.6 2.4
07/08:30pm 1.0 -8.6 -1.7 82 0.9 WSW 39 65 21 35 1019.1 - 2.4
07/08:01pm 1.0 -8.3 -1.9 81 1.0 SW 37 56 20 30 1018.9 - 2.4
07/08:00pm 0.9 -8.4 -2.0 81 1.1 SW 37 54 20 29 1019.0 - 2.4
07/07:30pm 0.9 -8.8 -2.0 81 1.1 SW 39 61 21 33 1018.9 - 2.4
07/07:25pm 0.9 -8.0 -1.8 82 1.0 SW 35 57 19 31 1018.8 - 2.4
07/07:00pm 0.8 -7.6 -2.1 81 1.0 SW 32 46 17 25 1018.8 - 2.4
07/06:30pm 0.8 -6.8 -1.9 82 1.0 SW 28 48 15 26 1018.7 - 2.4
07/06:16pm 1.0 -7.3 -1.7 82 0.9 SW 32 50 17 27 1018.7 - 2.4
07/06:00pm 1.0 -6.6 -1.9 81 1.0 SW 28 44 15 24 1018.5 1018.8 2.4
07/05:30pm 1.1 -5.3 -1.6 82 0.9 SW 22 35 12 19 1018.3 - 2.4
07/05:00pm 1.0 -5.5 -2.1 80 1.1 SW 22 37 12 20 1018.0 - 2.4
07/04:30pm 1.4 -6.1 -1.5 81 1.0 SW 28 54 15 29 1018.0 - 2.4
07/04:00pm 1.5 -6.8 -1.4 81 1.0 SW 32 56 17 30 1017.6 - 2.2
07/03:30pm 1.3 -8.3 -1.8 80 1.1 SW 39 67 21 36 1017.7 - 2.2
07/03:00pm 1.6 -7.2 -1.3 81 1.0 SW 35 56 19 30 1017.4 1017.7 2.2
07/02:30pm 1.6 -7.2 -1.3 81 1.0 WSW 35 59 19 32 1016.9 - 2.2
07/02:00pm 1.6 -7.6 -1.1 82 1.0 WSW 37 56 20 30 1016.9 - 2.2
07/01:30pm 1.7 -7.8 -0.9 83 0.9 WSW 39 61 21 33 1016.2 - 2.2
07/01:00pm 1.6 -8.9 -1.3 81 1.0 WSW 44 72 24 39 1016.3 - 2.2
07/12:30pm 1.7 -8.6 -1.0 82 1.0 WSW 43 61 23 33 1016.3 - 2.2
07/12:00pm 1.7 -6.7 -1.0 82 1.0 WSW 33 52 18 28 1016.4 1016.7 2.2
07/11:30am 1.7 -7.1 -1.4 80 1.1 WSW 35 59 19 32 1016.5 - 2.2
07/11:00am 1.9 -7.3 -1.3 79 1.1 WSW 37 63 20 34 1016.6 - 2.0
07/10:30am 1.5 -6.7 -1.1 83 0.9 WSW 32 52 17 28 1016.4 - 1.0
07/10:17am 1.4 -6.1 -1.3 82 0.9 SW 28 50 15 27 1016.5 - 0.8
07/10:00am 1.5 -5.6 -1.6 80 1.1 S 26 41 14 22 1016.7 - 0.4
07/09:30am 1.1 -6.1 -1.8 81 1.0 S 26 43 14 23 1016.6 - 0.0
07/09:00am 1.0 -6.2 -2.2 79 1.2 S 26 37 14 20 1016.7 1017.0 0.0
07/08:30am 0.9 -7.2 -2.8 76 1.3 S 30 37 16 20 1016.5 - 0.0
07/08:00am 1.0 -8.1 -3.5 72 1.6 S 35 46 19 25 1016.4 - 0.0
07/07:30am 0.6 -8.2 -4.4 69 1.7 S 33 43 18 23 1016.0 - 0.0
07/07:00am 0.1 -8.3 -5.7 65 1.8 S 30 41 16 22 1015.8 - 0.0
07/06:30am 0.1 -9.2 -5.5 66 1.8 S 35 43 19 23 1015.5 - 0.0
07/06:00am -0.2 -8.2 -5.8 66 1.7 S 28 39 15 21 1015.0 1015.3 0.0
07/05:30am -0.2 -10.0 -6.4 63 1.9 S 37 46 20 25 1014.8 - 0.0
07/05:00am -0.1 -9.5 -5.9 65 1.8 S 35 46 19 25 1014.3 - 0.0
07/04:30am -0.1 -9.5 -5.9 65 1.8 S 35 48 19 26 1014.3 - 0.0
07/04:00am -0.4 -9.4 -6.4 64 1.8 S 33 44 18 24 1014.1 - 0.0
07/03:30am -0.4 -9.4 -6.2 65 1.8 S 33 43 18 23 1013.5 - 0.0
07/03:00am -0.4 -8.8 -6.2 65 1.8 S 30 46 16 25 1013.5 1013.8 0.0
07/02:30am -0.3 -9.2 -5.5 68 1.6 S 33 46 18 25 1013.1 - 0.0
07/02:04am -0.6 -10.7 -6.1 66 1.7 S 39 57 21 31 1013.1 - 0.0
07/02:00am -0.8 -10.9 -6.3 66 1.6 S 39 48 21 26 1013.1 - 0.0
07/01:30am -1.0 -11.1 -6.1 68 1.5 S 39 52 21 28 1013.0 - 0.0
07/01:00am -1.2 -10.9 -6.1 69 1.4 S 37 50 20 27 1012.6 - 0.0
07/12:30am -1.2 -10.9 -6.0 70 1.4 S 37 48 20 26 1012.3 - 0.0
07/12:00am -1.3 -10.7 -6.0 70 1.4 S 35 50 19 27 1012.0 1012.3 0.0
 
Date/Time
EST
Temp
°C
App
Temp
°C
Dew
Point
Rel
Hum
%
Delta-T
°C
Wind Press
QNH
hPa
Press
MSL
hPa
Rain
since 9 am
mm
Dir
 
Spd
km/h
Gust
km/h
Spd
kts
Gust
kts
06/11:34pm -1.2 -11.3 -6.0 70 1.4 S 39 57 21 31 1011.8 - 0.0
06/11:30pm -1.2 -11.3 -6.1 69 1.4 S 39 48 21 26 1011.8 - 0.0
06/11:06pm -1.5 -10.8 -5.7 73 1.2 S 35 54 19 29 1011.5 - 0.0
06/11:00pm -1.5 -10.5 -5.7 73 1.2 S 33 44 18 24 1011.5 - 0.0
06/10:30pm -1.8 -11.9 -6.2 72 1.2 S 39 52 21 28 1011.3 - 0.0
06/10:00pm -2.1 -11.4 -5.4 78 0.9 S 35 46 19 25 1010.9 - 0.0
06/09:30pm -2.1 -10.1 -5.4 78 0.9 S 28 43 15 23 1010.5 - 0.0
06/09:00pm -2.0 -10.3 -5.3 78 0.9 S 30 43 16 23 1010.4 1010.7 0.0
06/08:30pm -1.5 -10.4 -5.2 76 1.1 S 33 43 18 23 1009.9 - 0.0
06/08:00pm -1.2 -9.5 -4.9 76 1.1 S 30 39 16 21 1009.6 - 0.0
06/07:30pm -1.2 -10.9 -5.2 74 1.2 S 37 48 20 26 1009.2 - 0.0
06/07:00pm -1.2 -10.4 -4.2 80 0.9 S 35 54 19 29 1008.8 - 0.0
06/06:59pm -1.3 -10.5 -4.5 79 1.0 S 35 54 19 29 1008.8 - 0.0
06/06:30pm -1.2 -9.7 -3.7 83 0.8 S 32 46 17 25 1008.5 - 0.0
06/06:02pm -1.0 -9.2 -4.2 79 1.0 S 30 48 16 26 1008.3 - 0.0
06/06:00pm -1.0 -8.8 -4.2 79 1.0 S 28 43 15 23 1008.2 1008.5 0.0
06/05:55pm -1.1 -9.0 -4.3 79 1.0 S 28 46 15 25 1008.2 - 0.0
06/05:30pm -1.0 -10.9 -4.3 78 1.0 S 39 52 21 28 1007.9 - 0.0
06/05:00pm -0.8 -10.7 -4.3 77 1.1 S 39 52 21 28 1007.5 - 0.0
06/04:30pm -0.9 -10.8 -4.2 78 1.0 S 39 52 21 28 1007.1 - 0.0
06/04:00pm -0.9 -10.8 -4.2 78 1.0 S 39 50 21 27 1006.7 - 0.0
06/03:30pm -1.0 -11.3 -4.2 79 1.0 S 41 56 22 30 1006.3 - 0.0
06/03:00pm -0.9 -11.2 -4.1 79 1.0 S 41 59 22 32 1006.0 1006.3 0.0
06/02:35pm -1.0 -10.1 -3.7 82 0.8 S 35 54 19 29 1005.7 - 0.0
06/02:30pm -0.8 -9.9 -3.5 82 0.8 S 35 48 19 26 1005.7 - 0.0
06/02:06pm -0.9 -10.4 -3.7 81 0.9 S 37 56 20 30 1005.4 - 0.0
06/02:00pm -1.0 -11.3 -3.8 81 0.9 S 41 56 22 30 1005.3 - 0.0
06/01:47pm -1.1 -9.7 -4.1 80 0.9 S 32 54 17 29 1005.1 - 0.0
06/01:30pm -0.8 -11.4 -3.8 80 0.9 S 43 56 23 30 1004.8 - 0.0
06/01:00pm -1.0 -10.6 -4.2 79 1.0 S 37 48 20 26 1004.6 - 0.0
06/12:55pm -0.9 -10.8 -4.2 78 1.0 S 39 57 21 31 1004.4 - 0.0
06/12:30pm -0.5 -10.5 -4.4 75 1.2 S 39 54 21 29 1004.1 - 0.0
06/12:03pm -0.6 -10.1 -4.1 77 1.1 S 37 56 20 30 1003.8 - 0.0
06/12:00pm -0.4 -9.9 -3.9 77 1.1 S 37 52 20 28 1003.8 1004.1 0.0
06/11:49am -0.6 -9.4 -4.1 77 1.1 S 33 52 18 28 1003.6 - 0.0
06/11:30am -0.7 -10.2 -3.9 79 1.0 S 37 48 20 26 1003.6 - 0.0
06/11:01am -0.7 -11.0 -4.2 77 1.1 S 41 59 22 32 1003.4 - 0.0
06/11:00am -0.7 -11.4 -4.2 77 1.1 S 43 59 23 32 1003.5 - 0.0
06/10:30am -0.2 -10.8 -3.6 78 1.1 S 43 65 23 35 1002.7 - 0.0
06/10:00am -0.3 -10.5 -3.5 79 1.0 S 41 61 22 33 1002.6 - 0.0
06/09:30am -0.6 -10.4 -3.4 81 0.9 S 39 59 21 32 1002.1 - 0.0
06/09:00am -0.9 -10.8 -4.2 78 1.0 S 39 57 21 31 1001.8 1002.1 0.0
06/08:31am -0.7 -11.4 -4.6 75 1.2 S 43 61 23 33 1001.2 - 0.0
06/08:30am -0.7 -11.6 -4.6 75 1.2 S 44 61 24 33 1001.2 - 0.0
06/08:00am -1.1 -11.1 -4.4 78 1.0 S 39 54 21 29 1000.7 - 0.0
06/07:38am -1.4 -12.0 -3.7 84 0.7 S 43 61 23 33 1000.5 - 0.0
06/07:30am -1.4 -11.6 -3.6 85 0.7 S 41 57 22 31 1000.3 - 0.0
06/07:20am -1.4 -10.5 -3.7 84 0.7 S 35 59 19 32 1000.3 - 0.0
06/07:00am -0.9 -10.1 -4.4 77 1.1 S 35 44 19 24 999.9 - 0.0
06/06:56am -1.0 -9.8 -4.3 78 1.0 S 33 52 18 28 999.9 - 0.0
06/06:30am -1.1 -11.1 -5.3 73 1.3 S 39 52 21 28 999.5 - 0.0
06/06:00am -1.6 -11.6 -4.9 78 1.0 S 39 50 21 27 999.1 999.4 0.0
06/05:30am -1.5 -11.4 -4.3 81 0.8 S 39 52 21 28 998.7 - 0.0
06/05:00am -1.5 -11.9 -5.0 77 1.0 S 41 52 22 28 998.4 - 0.0
06/04:51am -1.5 -11.5 -5.0 77 1.0 S 39 57 21 31 998.4 - 0.0
06/04:30am -1.6 -12.4 -4.9 78 1.0 S 43 57 23 31 998.2 - 0.0
06/04:05am -1.8 -12.6 -5.3 77 1.0 S 43 63 23 34 998.0 - 0.0
06/04:00am -1.6 -11.6 -5.3 76 1.1 S 39 50 21 27 998.0 - 0.0
06/03:30am -1.8 -11.1 -5.6 75 1.1 S 35 50 19 27 997.5 - 0.0
06/03:00am -1.9 -10.6 -5.2 78 0.9 S 32 43 17 23 997.4 997.7 0.0
06/02:30am -1.4 -10.7 -5.4 74 1.2 S 35 50 19 27 997.1 - 0.0
06/02:00am -1.5 -11.5 -4.8 78 1.0 S 39 52 21 28 996.9 - 0.0
06/01:38am -1.6 -11.3 -5.4 75 1.1 S 37 57 20 31 996.6 - 0.0
06/01:30am -1.3 -10.9 -5.1 75 1.1 S 37 50 20 27 996.5 - 0.0
06/01:00am -1.5 -11.2 -5.2 76 1.1 S 37 50 20 27 996.0 - 0.0
06/12:30am -1.8 -10.6 -4.6 81 0.8 S 33 46 18 25 995.8 - 0.0
06/12:14am -1.8 -10.5 -4.9 79 0.9 S 32 50 17 27 995.7 - 0.0
06/12:00am -1.7 -11.0 -5.4 76 1.1 S 35 50 19 27 995.5 995.8 0.0
 
Date/Time
EST
Temp
°C
App
Temp
°C
Dew
Point
Rel
Hum
%
Delta-T
°C
Wind Press
QNH
hPa
Press
MSL
hPa
Rain
since 9 am
mm
Dir
 
Spd
km/h
Gust
km/h
Spd
kts
Gust
kts
05/11:30pm -2.1 -11.8 -6.1 74 1.1 S 37 50 20 27 995.2 - 0.0
05/11:04pm -2.0 -10.7 -5.1 79 0.9 SSW 32 50 17 27 995.0 - 0.0
05/11:00pm -2.1 -10.4 -5.1 80 0.8 SSW 30 44 16 24 994.9 - 0.0
05/10:30pm -2.5 -10.1 -5.1 82 0.7 SSW 26 50 14 27 994.6 - 0.0
05/10:22pm -2.4 -11.1 -5.2 81 0.8 S 32 50 17 27 994.6 - 0.0
05/10:00pm -2.5 -10.1 -5.6 79 0.8 S 26 41 14 22 994.3 - 0.0
05/09:30pm -2.5 -10.2 -6.3 75 1.0 SSW 26 43 14 23 993.7 - 0.0
05/09:00pm -2.1 -11.5 -6.1 74 1.1 S 35 48 19 26 993.4 993.7 0.0
05/08:30pm -2.6 -11.4 -6.1 77 0.9 S 32 46 17 25 993.2 - 0.0
05/08:18pm -2.2 -11.6 -6.5 72 1.2 S 35 54 19 29 992.9 - 0.0
05/08:00pm -2.3 -12.2 -7.2 69 1.3 S 37 50 20 27 992.6 - 0.0
05/07:32pm -2.3 -11.6 -5.6 78 0.9 S 35 54 19 29 992.3 - 0.0
05/07:30pm -2.4 -12.1 -5.7 78 0.9 S 37 54 20 29 992.2 - 0.0
05/07:00pm -2.1 -11.0 -5.2 79 0.9 S 33 46 18 25 991.7 - 0.0
05/06:36pm -2.0 -11.6 -5.0 80 0.8 S 37 56 20 30 991.5 - 0.0
05/06:30pm -2.0 -10.9 -4.8 81 0.8 S 33 48 18 26 991.4 - 0.0
05/06:00pm -2.2 -9.4 -5.2 80 0.8 SSW 24 48 13 26 991.1 991.4 0.0
05/05:47pm -1.2 -9.2 -6.0 70 1.4 SSW 28 46 15 25 990.8 - 0.0
05/05:30pm -1.2 -9.8 -4.5 78 1.0 S 32 46 17 25 990.6 - 0.0
05/05:04pm -1.5 -9.3 -4.2 82 0.8 S 28 46 15 25 990.2 - 0.0
05/05:00pm -1.4 -8.9 -4.1 82 0.8 S 26 37 14 20 990.2 - 0.0
05/04:35pm -1.0 -8.8 -4.2 79 1.0 S 28 46 15 25 989.8 - 0.0
05/04:30pm -1.0 -9.8 -4.0 80 0.9 S 33 46 18 25 989.9 - 0.0
05/04:00pm -0.8 -9.9 -4.0 79 1.0 S 35 46 19 25 989.3 - 0.0
05/03:30pm -1.7 -9.6 -4.7 80 0.9 SSW 28 50 15 27 989.0 - 0.0
05/03:06pm -0.2 -8.4 -4.1 75 1.3 S 30 48 16 26 988.5 - 0.0
05/03:00pm -0.2 -8.0 -4.1 75 1.3 S 28 39 15 21 988.4 988.7 0.0

Other Formats:

Comma delimited format used in spreadsheet applications
http://www.bom.gov.au/fwo/IDT60803/IDT60803.94998.axf

JavaScript Object Notation format (JSON) in row-major order
http://www.bom.gov.au/fwo/IDT60803/IDT60803.94998.json